createdAt,value
2022-10-17T00:00:53.468Z,4.47
2022-10-17T00:03:21.590Z,4.33
2022-10-17T00:05:51.027Z,3.90
2022-10-17T00:08:19.757Z,4.23
2022-10-17T00:10:56.494Z,3.97
2022-10-17T00:13:24.674Z,4.30
2022-10-17T00:15:52.805Z,4.03
2022-10-17T00:18:20.936Z,4.17
2022-10-17T00:20:50.318Z,3.90
2022-10-17T00:23:18.820Z,4.33
2022-10-17T00:25:46.891Z,4.20
2022-10-17T00:28:16.500Z,3.93
2022-10-17T00:30:44.495Z,4.20
2022-10-17T00:33:12.607Z,4.40
2022-10-17T00:35:40.624Z,4.10
2022-10-17T00:38:10.015Z,4.03
2022-10-17T00:40:38.037Z,4.13
2022-10-17T00:43:06.086Z,4.23
2022-10-17T00:45:34.111Z,4.17
2022-10-17T00:48:06.234Z,3.80
2022-10-17T00:50:36.065Z,3.87
2022-10-17T00:53:09.329Z,4.00
2022-10-17T00:55:45.819Z,4.20
2022-10-17T00:58:14.070Z,3.90
2022-10-17T01:00:43.649Z,4.13
2022-10-17T01:03:11.744Z,4.40
2022-10-17T01:05:41.109Z,3.73
2022-10-17T01:08:10.244Z,3.57
2022-10-17T01:10:51.487Z,3.57
2022-10-17T01:13:25.509Z,3.73
2022-10-17T01:16:00.899Z,3.77
2022-10-17T01:18:44.494Z,3.83
2022-10-17T01:21:31.292Z,3.80
2022-10-17T01:24:33.208Z,3.70
2022-10-17T01:27:31.097Z,3.80
2022-10-17T01:30:22.700Z,3.53
2022-10-17T01:32:57.057Z,3.53
2022-10-17T01:35:30.776Z,3.70
2022-10-17T01:38:08.226Z,3.40
2022-10-17T01:40:40.589Z,3.83
2022-10-17T01:43:14.808Z,3.80
2022-10-17T01:45:48.001Z,3.80
2022-10-17T01:48:20.235Z,3.83
2022-10-17T01:50:52.978Z,3.50
2022-10-17T01:53:26.032Z,3.77
2022-10-17T01:58:34.299Z,3.83
2022-10-17T02:01:05.993Z,3.97
2022-10-17T02:03:36.683Z,3.63
2022-10-17T02:06:04.834Z,3.87
2022-10-17T02:08:43.826Z,3.93
2022-10-17T02:11:16.919Z,3.70
2022-10-17T02:14:10.148Z,3.30
2022-10-17T02:16:43.801Z,3.87
2022-10-17T02:19:35.727Z,3.37
2022-10-17T02:22:14.694Z,3.90
2022-10-17T02:24:50.709Z,3.53
2022-10-17T02:27:27.269Z,3.33
2022-10-17T02:30:01.601Z,3.40
2022-10-17T02:32:39.599Z,3.53
2022-10-17T02:35:12.693Z,3.57
2022-10-17T02:37:44.204Z,3.60
2022-10-17T02:40:15.618Z,3.00
2022-10-17T02:42:46.375Z,3.30
2022-10-17T02:45:16.914Z,3.30
2022-10-17T02:47:52.302Z,3.57
2022-10-17T02:53:08.173Z,2.90
2022-10-17T02:55:42.509Z,3.07
2022-10-17T02:58:16.091Z,3.60
2022-10-17T03:00:44.766Z,3.43
2022-10-17T03:03:23.724Z,3.30
2022-10-17T03:05:53.531Z,2.73
2022-10-17T03:08:21.598Z,3.03
2022-10-17T03:10:50.316Z,3.27
2022-10-17T03:13:18.901Z,3.17
2022-10-17T03:15:46.934Z,3.00
2022-10-17T03:18:15.106Z,3.20
2022-10-17T03:20:43.141Z,3.10
2022-10-17T03:23:12.488Z,2.97
2022-10-17T03:25:40.508Z,2.90
2022-10-17T03:28:08.508Z,3.03
2022-10-17T03:30:39.020Z,3.00
2022-10-17T03:33:06.985Z,2.90
2022-10-17T03:35:35.012Z,3.03
2022-10-17T03:38:02.999Z,3.00
2022-10-17T03:40:32.319Z,2.90
2022-10-17T03:43:00.322Z,3.10
2022-10-17T03:45:28.313Z,3.20
2022-10-17T03:47:56.319Z,3.43
2022-10-17T03:50:24.315Z,3.30
2022-10-17T03:52:52.405Z,3.10
2022-10-17T03:55:20.408Z,2.90
2022-10-17T03:57:49.748Z,3.17
2022-10-17T04:00:17.854Z,2.90
2022-10-17T04:02:45.811Z,3.13
2022-10-17T04:05:13.827Z,3.00
2022-10-17T04:07:41.782Z,2.90
2022-10-17T04:10:10.961Z,3.07
2022-10-17T04:12:38.962Z,3.00
2022-10-17T04:15:09.738Z,3.43
2022-10-17T04:17:38.324Z,3.13
2022-10-17T04:20:07.211Z,3.37
2022-10-17T04:22:35.215Z,3.27
2022-10-17T04:25:03.183Z,3.53
2022-10-17T04:27:31.449Z,3.20
2022-10-17T04:29:59.426Z,3.20
2022-10-17T04:32:29.090Z,3.00
2022-10-17T04:34:57.239Z,3.37
2022-10-17T04:37:25.307Z,3.00
2022-10-17T04:39:53.301Z,3.03
2022-10-17T04:42:21.307Z,3.33
2022-10-17T04:44:49.304Z,3.33
2022-10-17T04:47:17.332Z,3.10
2022-10-17T04:49:46.805Z,3.50
2022-10-17T04:52:14.796Z,3.27
2022-10-17T04:54:42.790Z,3.37
2022-10-17T04:57:10.771Z,3.30
2022-10-17T04:59:38.786Z,3.47
2022-10-17T05:02:06.894Z,3.40
2022-10-17T05:04:34.903Z,3.33
2022-10-17T05:07:04.720Z,3.60
2022-10-17T05:09:32.713Z,3.20
2022-10-17T05:12:00.801Z,3.50
2022-10-17T05:14:29.034Z,3.27
2022-10-17T05:16:56.989Z,2.80
2022-10-17T05:19:25.012Z,2.90
2022-10-17T05:21:53.006Z,3.20
2022-10-17T05:24:22.360Z,3.80
2022-10-17T05:26:51.958Z,3.40
2022-10-17T05:29:19.963Z,3.20
2022-10-17T05:31:47.947Z,3.37
2022-10-17T05:34:15.933Z,3.10
2022-10-17T05:36:44.029Z,3.30
2022-10-17T05:39:13.519Z,3.70
2022-10-17T05:41:42.887Z,3.57
2022-10-17T05:44:10.861Z,3.77
2022-10-17T05:46:38.835Z,3.80
2022-10-17T05:49:15.063Z,3.40
2022-10-17T05:51:54.790Z,3.27
2022-10-17T05:54:24.059Z,3.67
2022-10-17T05:56:54.846Z,3.10
2022-10-17T05:59:23.411Z,3.33
2022-10-17T06:01:51.506Z,3.50
2022-10-17T06:04:20.880Z,4.03
2022-10-17T06:06:48.882Z,3.40
2022-10-17T06:09:16.878Z,2.93
2022-10-17T06:11:44.961Z,3.37
2022-10-17T06:14:14.363Z,3.17
2022-10-17T06:16:43.448Z,3.67
2022-10-17T06:19:12.067Z,3.63
2022-10-17T06:21:40.113Z,3.70
2022-10-17T06:24:08.130Z,3.37
2022-10-17T06:26:36.202Z,3.90
2022-10-17T06:29:04.532Z,3.40
2022-10-17T06:31:33.946Z,3.47
2022-10-17T06:34:02.047Z,3.47
2022-10-17T06:36:30.048Z,3.80
2022-10-17T06:38:58.140Z,4.40
2022-10-17T06:41:26.166Z,3.80
2022-10-17T06:43:54.251Z,3.80
2022-10-17T06:46:22.353Z,3.63
2022-10-17T06:48:53.183Z,3.90
2022-10-17T06:51:21.282Z,3.70
2022-10-17T06:53:50.373Z,3.87
2022-10-17T06:56:19.438Z,4.23
2022-10-17T06:58:49.405Z,4.47
2022-10-17T07:01:17.676Z,4.47
2022-10-17T07:03:49.471Z,4.37
2022-10-17T07:06:19.166Z,4.23
2022-10-17T07:08:47.247Z,4.40
2022-10-17T07:11:17.431Z,4.23
2022-10-17T07:13:45.721Z,4.37
2022-10-17T07:16:14.962Z,4.50
2022-10-17T07:18:43.562Z,4.13
2022-10-17T07:21:11.864Z,4.27
2022-10-17T07:23:41.582Z,4.40
2022-10-17T07:26:12.954Z,4.10
2022-10-17T07:28:44.023Z,4.53
2022-10-17T07:31:14.880Z,4.33
2022-10-17T07:33:43.217Z,4.90
2022-10-17T07:36:11.510Z,4.43
2022-10-17T07:38:42.184Z,4.20
2022-10-17T07:41:13.120Z,4.07
2022-10-17T07:43:43.298Z,4.20
2022-10-17T07:46:12.070Z,4.30
2022-10-17T07:48:41.245Z,4.70
2022-10-17T07:51:10.986Z,4.50
2022-10-17T07:53:41.760Z,4.60
2022-10-17T07:56:13.791Z,5.00
2022-10-17T07:58:41.815Z,4.80
2022-10-17T08:01:15.602Z,5.00
2022-10-17T08:03:45.776Z,5.00
2022-10-17T08:06:14.488Z,5.40
2022-10-17T08:08:42.991Z,5.13
2022-10-17T08:11:14.457Z,5.03
2022-10-17T08:13:42.994Z,4.87
2022-10-17T08:16:13.070Z,4.67
2022-10-17T08:18:42.122Z,4.73
2022-10-17T08:21:10.848Z,4.83
2022-10-17T08:23:39.204Z,4.80
2022-10-17T08:26:10.695Z,4.67
2022-10-17T08:28:41.366Z,5.20
2022-10-17T08:31:12.807Z,5.40
2022-10-17T08:33:41.359Z,5.17
2022-10-17T08:36:10.834Z,5.10
2022-10-17T08:38:43.061Z,5.00
2022-10-17T08:41:16.251Z,4.60
2022-10-17T08:43:57.627Z,4.90
2022-10-17T08:46:33.376Z,4.90
2022-10-17T08:49:07.587Z,4.57
2022-10-17T08:51:42.187Z,4.53
2022-10-17T08:54:16.024Z,4.70
2022-10-17T08:56:49.578Z,4.80
2022-10-17T08:59:24.471Z,4.50
2022-10-17T09:02:00.778Z,4.80
2022-10-17T09:04:43.244Z,5.10
2022-10-17T09:07:20.303Z,4.40
2022-10-17T09:09:58.029Z,4.73
2022-10-17T09:12:36.761Z,4.50
2022-10-17T09:15:31.000Z,4.77
2022-10-17T09:18:03.100Z,4.53
2022-10-17T09:20:34.883Z,4.47
2022-10-17T09:23:09.884Z,4.70
2022-10-17T09:25:44.799Z,4.50
2022-10-17T09:28:19.084Z,4.07
2022-10-17T09:30:54.742Z,4.27
2022-10-17T09:33:35.073Z,4.47
2022-10-17T09:36:14.187Z,4.77
2022-10-17T09:38:44.135Z,4.30
2022-10-17T09:41:44.186Z,4.13
2022-10-17T09:44:18.187Z,4.37
2022-10-17T09:47:12.430Z,4.53
2022-10-17T09:49:41.907Z,4.30
2022-10-17T09:52:15.984Z,4.30
2022-10-17T09:54:46.800Z,4.20
2022-10-17T09:57:16.158Z,4.23
2022-10-17T09:59:47.178Z,4.60
2022-10-17T10:02:22.824Z,4.10
2022-10-17T10:05:10.817Z,4.30
2022-10-17T10:07:40.219Z,3.97
2022-10-17T10:10:23.915Z,4.43
2022-10-17T10:13:05.760Z,4.40
2022-10-17T10:15:41.028Z,4.37
2022-10-17T10:18:37.702Z,4.17
2022-10-17T10:21:12.088Z,4.80
2022-10-17T10:23:41.343Z,4.37
2022-10-17T10:26:23.777Z,4.13
2022-10-17T10:28:59.069Z,4.20
2022-10-17T10:31:33.371Z,4.50
2022-10-17T10:34:16.403Z,3.97
2022-10-17T10:36:54.583Z,4.00
2022-10-17T10:39:42.488Z,4.00
2022-10-17T10:42:31.001Z,4.03
2022-10-17T10:45:03.858Z,4.33
2022-10-17T10:47:33.669Z,4.53
2022-10-17T10:50:33.302Z,4.17
2022-10-17T10:53:18.154Z,4.30
2022-10-17T10:55:51.498Z,4.80
2022-10-17T10:58:35.913Z,3.97
2022-10-17T11:01:11.716Z,4.50
2022-10-17T11:03:53.751Z,4.67
2022-10-17T11:06:28.929Z,5.00
2022-10-17T11:09:14.794Z,5.07
2022-10-17T11:11:50.180Z,4.70
2022-10-17T11:14:25.825Z,4.70
2022-10-17T11:17:03.570Z,4.57
2022-10-17T11:19:38.810Z,4.80
2022-10-17T11:22:14.167Z,4.50
2022-10-17T11:24:48.113Z,4.43
2022-10-17T11:27:17.285Z,4.73
2022-10-17T11:29:47.461Z,4.80
2022-10-17T11:32:27.884Z,4.93
2022-10-17T11:35:05.207Z,4.90
2022-10-17T11:37:41.230Z,5.27
2022-10-17T11:40:22.000Z,4.80
2022-10-17T11:43:00.633Z,4.90
2022-10-17T11:45:32.446Z,5.03
2022-10-17T11:48:05.741Z,5.27
2022-10-17T11:53:32.795Z,5.83
2022-10-17T11:56:04.447Z,5.23
2022-10-17T11:58:38.986Z,5.90
2022-10-17T12:01:18.934Z,5.63
2022-10-17T12:04:00.648Z,6.20
2022-10-17T12:06:41.231Z,5.73
2022-10-17T12:09:19.252Z,5.40
2022-10-17T12:11:54.312Z,5.60
2022-10-17T12:14:41.859Z,6.23
2022-10-17T12:17:41.340Z,6.13
2022-10-17T12:20:32.454Z,6.50
2022-10-17T12:23:30.105Z,6.50
2022-10-17T12:26:04.794Z,7.47
2022-10-17T12:28:37.723Z,7.70
2022-10-17T12:31:13.315Z,7.63
2022-10-17T12:33:52.415Z,7.77
2022-10-17T12:36:51.332Z,7.60
2022-10-17T12:39:46.266Z,7.67
2022-10-17T12:42:50.795Z,8.43
2022-10-17T12:45:48.420Z,8.20
2022-10-17T12:48:50.209Z,8.00
2022-10-17T12:51:37.335Z,8.30
2022-10-17T12:54:13.556Z,8.93
2022-10-17T12:56:44.718Z,8.20
2022-10-17T12:59:19.845Z,8.47
2022-10-17T13:01:52.974Z,9.10
2022-10-17T13:04:22.714Z,8.77
2022-10-17T13:06:54.761Z,8.60
2022-10-17T13:09:28.988Z,8.80
2022-10-17T13:12:01.504Z,8.60
2022-10-17T13:14:33.469Z,8.63
2022-10-17T13:17:04.297Z,9.60
2022-10-17T13:19:43.408Z,8.87
2022-10-17T13:22:18.462Z,7.90
2022-10-17T13:24:47.653Z,7.37
2022-10-17T13:27:29.120Z,8.40
2022-10-17T13:30:01.181Z,7.77
2022-10-17T13:32:38.949Z,7.83
2022-10-17T13:35:10.384Z,8.70
2022-10-17T13:37:44.183Z,9.20
2022-10-17T13:40:44.242Z,9.10
2022-10-17T13:43:16.711Z,10.10
2022-10-17T13:45:53.195Z,10.13
2022-10-17T13:48:28.046Z,10.27
2022-10-17T13:51:02.672Z,9.53
2022-10-17T13:53:35.108Z,10.87
2022-10-17T13:56:26.721Z,10.60
2022-10-17T13:58:58.847Z,9.90
2022-10-17T14:01:30.589Z,10.03
2022-10-17T14:04:09.379Z,10.23
2022-10-17T14:06:49.786Z,10.10
2022-10-17T14:09:24.269Z,9.87
2022-10-17T14:12:02.975Z,10.07
2022-10-17T14:14:51.749Z,10.70
2022-10-17T14:17:27.115Z,10.40
2022-10-17T14:20:26.628Z,10.57
2022-10-17T14:23:17.429Z,9.90
2022-10-17T14:25:41.670Z,11.17
2022-10-17T14:28:15.878Z,10.23
2022-10-17T14:30:56.394Z,10.30
2022-10-17T14:33:29.543Z,10.53
2022-10-17T14:35:59.876Z,10.17
2022-10-17T14:38:30.051Z,10.80
2022-10-17T14:41:15.701Z,10.70
2022-10-17T14:43:55.347Z,11.93
2022-10-17T14:46:23.526Z,11.77
2022-10-17T14:48:59.875Z,10.93
2022-10-17T14:51:32.501Z,11.83
2022-10-17T14:54:21.080Z,11.07
2022-10-17T14:56:52.732Z,10.20
2022-10-17T14:59:51.470Z,10.80
2022-10-17T15:02:12.005Z,10.70
2022-10-17T15:04:41.391Z,11.53
2022-10-17T15:07:14.154Z,11.10
2022-10-17T15:09:42.496Z,11.43
2022-10-17T15:12:15.452Z,11.40
2022-10-17T15:14:43.985Z,11.33
2022-10-17T15:17:15.339Z,11.70
2022-10-17T15:19:44.717Z,11.63
2022-10-17T15:22:12.929Z,11.77
2022-10-17T15:24:40.884Z,11.63
2022-10-17T15:27:16.505Z,12.07
2022-10-17T15:29:44.536Z,12.30
2022-10-17T15:32:12.712Z,11.97
2022-10-17T15:34:40.792Z,11.53
2022-10-17T15:37:18.312Z,11.83
2022-10-17T15:39:48.045Z,11.33
2022-10-17T15:42:16.022Z,11.87
2022-10-17T15:44:44.605Z,12.30
2022-10-17T15:47:23.299Z,12.53
2022-10-17T15:49:51.418Z,11.60
2022-10-17T15:52:21.020Z,12.60
2022-10-17T15:54:48.989Z,11.93
2022-10-17T15:57:25.563Z,11.67
2022-10-17T15:59:55.071Z,12.10
2022-10-17T16:02:24.566Z,11.10
2022-10-17T16:04:53.301Z,11.07
2022-10-17T16:07:22.828Z,11.57
2022-10-17T16:09:51.956Z,11.80
2022-10-17T16:12:24.551Z,10.70
2022-10-17T16:14:52.552Z,10.53
2022-10-17T16:17:20.614Z,10.70
2022-10-17T16:19:48.568Z,10.50
2022-10-17T16:22:25.976Z,10.83
2022-10-17T16:24:58.597Z,10.10
2022-10-17T16:27:26.670Z,10.37
2022-10-17T16:29:54.644Z,10.00
2022-10-17T16:32:22.595Z,9.23
2022-10-17T16:34:50.577Z,10.00
2022-10-17T16:37:18.562Z,9.70
2022-10-17T16:39:52.252Z,8.90
2022-10-17T16:42:20.307Z,8.63
2022-10-17T16:44:48.456Z,9.00
2022-10-17T16:47:16.781Z,8.23
2022-10-17T16:49:45.435Z,8.60
2022-10-17T16:52:14.128Z,9.07
2022-10-17T16:54:42.117Z,8.53
2022-10-17T16:57:11.567Z,8.00
2022-10-17T16:59:39.562Z,8.43
2022-10-17T17:02:08.243Z,7.83
2022-10-17T17:04:36.244Z,8.20
2022-10-17T17:07:04.396Z,8.13
2022-10-17T17:09:32.333Z,8.20
2022-10-17T17:12:00.300Z,8.10
2022-10-17T17:14:29.674Z,8.33
2022-10-17T17:16:57.620Z,8.50
2022-10-17T17:19:25.605Z,8.83
2022-10-17T17:21:53.634Z,9.10
2022-10-17T17:24:22.234Z,8.63
2022-10-17T17:26:53.094Z,8.50
2022-10-17T17:29:21.253Z,8.80
2022-10-17T17:31:51.019Z,8.63
2022-10-17T17:34:19.003Z,8.03
2022-10-17T17:36:47.185Z,7.77
2022-10-17T17:39:16.455Z,7.77
2022-10-17T17:41:45.633Z,8.60
2022-10-17T17:44:16.765Z,8.50
2022-10-17T17:46:45.733Z,8.67
2022-10-17T17:49:15.209Z,8.17
2022-10-17T17:51:46.346Z,8.23
2022-10-17T17:54:15.130Z,8.57
2022-10-17T17:56:43.136Z,8.90
2022-10-17T17:59:13.354Z,8.80
2022-10-17T18:01:41.725Z,8.60
2022-10-17T18:04:10.844Z,8.93
2022-10-17T18:06:40.839Z,7.97
2022-10-17T18:09:09.497Z,8.30
2022-10-17T18:11:38.540Z,7.37
2022-10-17T18:14:08.924Z,8.47
2022-10-17T18:16:38.460Z,7.27
2022-10-17T18:19:08.961Z,7.20
2022-10-17T18:21:37.677Z,6.70
2022-10-17T18:24:08.099Z,5.73
2022-10-17T18:26:36.239Z,4.77
2022-10-17T18:29:04.780Z,3.60
2022-10-17T18:31:35.787Z,3.73
2022-10-17T18:34:05.690Z,2.47
2022-10-17T18:36:34.995Z,2.90
2022-10-17T18:39:03.633Z,2.40
2022-10-17T18:41:33.579Z,2.03
2022-10-17T18:44:02.922Z,2.50
2022-10-17T18:46:32.630Z,2.33
2022-10-17T18:49:00.659Z,2.47
2022-10-17T18:51:28.721Z,2.30
2022-10-17T18:53:58.907Z,2.33
2022-10-17T18:56:27.428Z,2.30
2022-10-17T18:58:57.017Z,2.20
2022-10-17T19:01:26.775Z,2.10
2022-10-17T19:03:57.665Z,2.60
2022-10-17T19:06:27.783Z,2.70
2022-10-17T19:08:55.807Z,2.80
2022-10-17T19:11:25.941Z,2.83
2022-10-17T19:13:54.603Z,3.43
2022-10-17T19:16:25.766Z,3.13
2022-10-17T19:18:55.619Z,2.90
2022-10-17T19:21:24.217Z,3.50
2022-10-17T19:23:53.815Z,2.97
2022-10-17T19:26:22.891Z,3.10
2022-10-17T19:28:53.774Z,3.00
2022-10-17T19:31:27.097Z,3.00
2022-10-17T19:33:57.154Z,2.90
2022-10-17T19:36:30.495Z,3.20
2022-10-17T19:39:02.824Z,3.07
2022-10-17T19:41:30.920Z,2.73
2022-10-17T19:44:00.518Z,2.60
2022-10-17T19:46:31.342Z,2.80
2022-10-17T19:48:59.687Z,2.30
2022-10-17T19:51:29.042Z,2.87
2022-10-17T19:54:00.186Z,2.57
2022-10-17T19:56:29.602Z,2.73
2022-10-17T19:58:57.777Z,2.37
2022-10-17T20:01:27.962Z,2.23
2022-10-17T20:03:58.007Z,2.40
2022-10-17T20:06:26.009Z,2.20
2022-10-17T20:08:54.452Z,2.10
2022-10-17T20:11:24.747Z,2.10
2022-10-17T20:13:53.271Z,1.97
2022-10-17T20:16:23.808Z,2.23
2022-10-17T20:18:53.327Z,1.87
2022-10-17T20:21:25.073Z,2.00
2022-10-17T20:23:53.063Z,1.97
2022-10-17T20:26:36.895Z,2.00
2022-10-17T20:29:10.928Z,2.10
2022-10-17T20:31:39.791Z,1.80
2022-10-17T20:34:07.887Z,1.93
2022-10-17T20:36:37.795Z,2.20
2022-10-17T20:39:06.524Z,2.00
2022-10-17T20:41:34.615Z,2.27
2022-10-17T20:44:02.651Z,2.10
2022-10-17T20:46:44.422Z,2.13
2022-10-17T20:49:18.938Z,2.37
2022-10-17T20:51:48.296Z,2.23
2022-10-17T20:54:16.318Z,2.20
2022-10-17T20:56:44.309Z,2.70
2022-10-17T20:59:14.366Z,2.40
2022-10-17T21:01:42.522Z,2.60
2022-10-17T21:04:40.358Z,2.80
2022-10-17T21:07:00.553Z,2.97
2022-10-17T21:09:28.718Z,2.60
2022-10-17T21:11:57.099Z,3.07
2022-10-17T21:14:26.154Z,3.20
2022-10-17T21:16:54.470Z,2.90
2022-10-17T21:19:22.834Z,3.03
2022-10-17T21:21:51.355Z,3.30
2022-10-17T21:24:20.973Z,3.30
2022-10-17T21:26:55.330Z,3.23
2022-10-17T21:29:24.338Z,3.40
2022-10-17T21:31:52.804Z,3.90
2022-10-17T21:34:23.886Z,3.67
2022-10-17T21:36:52.534Z,3.80
2022-10-17T21:39:24.085Z,3.77
2022-10-17T21:41:53.031Z,4.00
2022-10-17T21:44:23.604Z,4.13
2022-10-17T21:46:52.035Z,5.03
2022-10-17T21:49:21.739Z,3.83
2022-10-17T21:51:51.202Z,4.30
2022-10-17T21:54:22.881Z,5.03
2022-10-17T21:56:51.472Z,5.70
2022-10-17T21:59:19.580Z,5.10
2022-10-17T22:01:47.884Z,5.50
2022-10-17T22:04:18.873Z,5.70
2022-10-17T22:06:50.958Z,6.10
2022-10-17T22:09:22.283Z,6.03
2022-10-17T22:11:53.807Z,6.00
2022-10-17T22:14:23.275Z,6.93
2022-10-17T22:16:51.488Z,6.87
2022-10-17T22:19:21.572Z,7.37
2022-10-17T22:21:49.626Z,6.57
2022-10-17T22:26:53.979Z,6.90
2022-10-17T22:29:22.299Z,7.27
2022-10-17T22:31:50.523Z,7.20
2022-10-17T22:34:19.794Z,7.43
2022-10-17T22:36:48.921Z,7.87
2022-10-17T22:39:17.387Z,7.73
2022-10-17T22:41:45.441Z,8.40
2022-10-17T22:44:16.303Z,9.00
2022-10-17T22:46:44.300Z,8.17
2022-10-17T22:49:12.298Z,9.80
2022-10-17T22:51:40.381Z,9.83
2022-10-17T22:54:08.489Z,10.20
2022-10-17T22:56:36.759Z,10.87
2022-10-17T22:59:04.996Z,12.33
2022-10-17T23:01:35.539Z,11.87
2022-10-17T23:04:03.610Z,11.63
2022-10-17T23:06:31.605Z,11.67
2022-10-17T23:08:59.792Z,11.50
2022-10-17T23:11:27.801Z,10.80
2022-10-17T23:13:55.770Z,10.93
2022-10-17T23:16:23.737Z,11.13
2022-10-17T23:18:53.097Z,11.80
2022-10-17T23:21:21.068Z,10.93
2022-10-17T23:23:49.074Z,11.07
2022-10-17T23:26:17.040Z,11.20
2022-10-17T23:28:45.068Z,11.73
2022-10-17T23:31:17.638Z,11.20
2022-10-17T23:33:47.054Z,11.33
2022-10-17T23:36:18.338Z,11.77
2022-10-17T23:38:47.445Z,12.07
2022-10-17T23:41:16.444Z,11.37
2022-10-17T23:43:44.625Z,11.30
2022-10-17T23:46:12.967Z,11.63
2022-10-17T23:48:41.448Z,12.13
2022-10-17T23:51:10.582Z,11.63
2022-10-17T23:53:40.646Z,12.70
2022-10-17T23:56:10.005Z,12.27
2022-10-17T23:58:38.656Z,12.13
